sensor_id;sensor_type;location;lat;lon;timestamp;P1;durP1;ratioP1;P2;durP2;ratioP2
19579;SDS011;9936;51.040;13.918;2023-03-01T00:01:29;35.27;;;18.37;;
19579;SDS011;9936;51.040;13.918;2023-03-01T00:05:15;35.77;;;18.20;;
19579;SDS011;9936;51.040;13.918;2023-03-01T00:09:01;32.53;;;17.60;;
19579;SDS011;9936;51.040;13.918;2023-03-01T00:12:47;38.70;;;19.20;;
19579;SDS011;9936;51.040;13.918;2023-03-01T00:16:40;34.43;;;17.53;;
19579;SDS011;9936;51.040;13.918;2023-03-01T00:20:26;28.67;;;15.67;;
19579;SDS011;9936;51.040;13.918;2023-03-01T00:24:12;30.93;;;16.97;;
19579;SDS011;9936;51.040;13.918;2023-03-01T00:27:58;29.93;;;14.77;;
19579;SDS011;9936;51.040;13.918;2023-03-01T00:31:44;27.93;;;14.97;;
19579;SDS011;9936;51.040;13.918;2023-03-01T00:35:29;27.33;;;14.73;;
19579;SDS011;9936;51.040;13.918;2023-03-01T00:39:16;24.87;;;13.90;;
19579;SDS011;9936;51.040;13.918;2023-03-01T00:43:02;25.50;;;13.90;;
19579;SDS011;9936;51.040;13.918;2023-03-01T00:46:49;25.30;;;13.53;;
19579;SDS011;9936;51.040;13.918;2023-03-01T00:50:34;25.33;;;13.30;;
19579;SDS011;9936;51.040;13.918;2023-03-01T00:54:20;24.37;;;11.63;;
19579;SDS011;9936;51.040;13.918;2023-03-01T00:58:05;25.17;;;13.07;;
19579;SDS011;9936;51.040;13.918;2023-03-01T01:01:51;24.80;;;13.17;;
19579;SDS011;9936;51.040;13.918;2023-03-01T01:05:37;28.73;;;13.37;;
19579;SDS011;9936;51.040;13.918;2023-03-01T01:09:22;25.47;;;12.77;;
19579;SDS011;9936;51.040;13.918;2023-03-01T01:13:08;24.83;;;13.13;;
19579;SDS011;9936;51.040;13.918;2023-03-01T01:16:54;23.27;;;12.97;;
19579;SDS011;9936;51.040;13.918;2023-03-01T01:20:39;25.10;;;13.43;;
19579;SDS011;9936;51.040;13.918;2023-03-01T01:24:26;24.07;;;13.70;;
19579;SDS011;9936;51.040;13.918;2023-03-01T01:28:11;28.03;;;13.80;;
19579;SDS011;9936;51.040;13.918;2023-03-01T01:31:57;26.97;;;14.90;;
19579;SDS011;9936;51.040;13.918;2023-03-01T01:35:44;25.20;;;13.73;;
19579;SDS011;9936;51.040;13.918;2023-03-01T01:39:30;30.17;;;15.17;;
19579;SDS011;9936;51.040;13.918;2023-03-01T01:43:26;32.47;;;16.23;;
19579;SDS011;9936;51.040;13.918;2023-03-01T01:47:18;26.93;;;15.17;;
19579;SDS011;9936;51.040;13.918;2023-03-01T01:51:13;28.03;;;14.60;;
19579;SDS011;9936;51.040;13.918;2023-03-01T01:55:17;28.63;;;15.40;;
19579;SDS011;9936;51.040;13.918;2023-03-01T01:59:06;26.80;;;14.20;;
19579;SDS011;9936;51.040;13.918;2023-03-01T02:02:56;28.77;;;14.80;;
19579;SDS011;9936;51.040;13.918;2023-03-01T02:06:48;29.27;;;14.77;;
19579;SDS011;9936;51.040;13.918;2023-03-01T02:10:39;32.87;;;14.47;;
19579;SDS011;9936;51.040;13.918;2023-03-01T02:14:26;28.17;;;14.33;;
19579;SDS011;9936;51.040;13.918;2023-03-01T02:18:12;26.80;;;14.27;;
19579;SDS011;9936;51.040;13.918;2023-03-01T02:22:08;26.53;;;14.73;;
19579;SDS011;9936;51.040;13.918;2023-03-01T02:30:10;26.37;;;14.27;;
19579;SDS011;9936;51.040;13.918;2023-03-01T02:33:57;26.17;;;14.53;;
19579;SDS011;9936;51.040;13.918;2023-03-01T02:37:43;28.77;;;14.80;;
19579;SDS011;9936;51.040;13.918;2023-03-01T02:41:31;28.97;;;14.60;;
19579;SDS011;9936;51.040;13.918;2023-03-01T02:45:20;28.10;;;14.60;;
19579;SDS011;9936;51.040;13.918;2023-03-01T02:49:16;29.07;;;14.77;;
19579;SDS011;9936;51.040;13.918;2023-03-01T02:53:06;29.10;;;13.90;;
19579;SDS011;9936;51.040;13.918;2023-03-01T02:56:57;30.17;;;14.77;;
19579;SDS011;9936;51.040;13.918;2023-03-01T03:00:43;25.67;;;14.30;;
19579;SDS011;9936;51.040;13.918;2023-03-01T03:04:31;29.30;;;13.57;;
19579;SDS011;9936;51.040;13.918;2023-03-01T03:08:17;27.13;;;14.50;;
19579;SDS011;9936;51.040;13.918;2023-03-01T03:12:08;28.83;;;14.03;;
19579;SDS011;9936;51.040;13.918;2023-03-01T03:15:55;29.17;;;14.47;;
19579;SDS011;9936;51.040;13.918;2023-03-01T03:19:41;29.63;;;14.37;;
19579;SDS011;9936;51.040;13.918;2023-03-01T03:23:30;26.67;;;14.43;;
19579;SDS011;9936;51.040;13.918;2023-03-01T03:27:16;28.77;;;14.60;;
19579;SDS011;9936;51.040;13.918;2023-03-01T03:31:01;28.33;;;14.77;;
19579;SDS011;9936;51.040;13.918;2023-03-01T03:34:50;32.47;;;14.87;;
19579;SDS011;9936;51.040;13.918;2023-03-01T03:38:35;30.30;;;15.40;;
19579;SDS011;9936;51.040;13.918;2023-03-01T03:42:21;35.83;;;16.27;;
19579;SDS011;9936;51.040;13.918;2023-03-01T03:46:07;29.20;;;15.13;;
19579;SDS011;9936;51.040;13.918;2023-03-01T03:49:53;26.73;;;14.60;;
19579;SDS011;9936;51.040;13.918;2023-03-01T03:53:39;35.70;;;16.83;;
19579;SDS011;9936;51.040;13.918;2023-03-01T03:57:25;34.03;;;16.33;;
19579;SDS011;9936;51.040;13.918;2023-03-01T04:01:10;31.73;;;15.67;;
19579;SDS011;9936;51.040;13.918;2023-03-01T04:04:56;30.23;;;15.13;;
19579;SDS011;9936;51.040;13.918;2023-03-01T04:08:42;31.87;;;15.03;;
19579;SDS011;9936;51.040;13.918;2023-03-01T04:12:27;30.77;;;15.77;;
19579;SDS011;9936;51.040;13.918;2023-03-01T04:16:13;30.97;;;16.10;;
19579;SDS011;9936;51.040;13.918;2023-03-01T04:19:58;32.83;;;15.03;;
19579;SDS011;9936;51.040;13.918;2023-03-01T04:23:44;28.47;;;14.63;;
19579;SDS011;9936;51.040;13.918;2023-03-01T04:27:30;28.47;;;14.60;;
19579;SDS011;9936;51.040;13.918;2023-03-01T04:31:16;30.27;;;14.73;;
19579;SDS011;9936;51.040;13.918;2023-03-01T04:35:03;31.07;;;15.93;;
19579;SDS011;9936;51.040;13.918;2023-03-01T04:38:49;32.67;;;16.00;;
19579;SDS011;9936;51.040;13.918;2023-03-01T04:42:35;30.83;;;15.97;;
19579;SDS011;9936;51.040;13.918;2023-03-01T04:46:21;31.53;;;16.57;;
19579;SDS011;9936;51.040;13.918;2023-03-01T04:50:07;32.17;;;15.97;;
19579;SDS011;9936;51.040;13.918;2023-03-01T04:53:53;32.37;;;16.30;;
19579;SDS011;9936;51.040;13.918;2023-03-01T04:57:46;32.17;;;15.63;;
19579;SDS011;9936;51.040;13.918;2023-03-01T05:01:33;34.60;;;16.63;;
19579;SDS011;9936;51.040;13.918;2023-03-01T05:05:23;33.17;;;16.10;;
19579;SDS011;9936;51.040;13.918;2023-03-01T05:13:11;33.67;;;15.23;;
19579;SDS011;9936;51.040;13.918;2023-03-01T05:17:06;28.27;;;15.60;;
19579;SDS011;9936;51.040;13.918;2023-03-01T05:20:52;33.63;;;16.60;;
19579;SDS011;9936;51.040;13.918;2023-03-01T05:24:46;34.37;;;16.87;;
19579;SDS011;9936;51.040;13.918;2023-03-01T05:28:32;32.90;;;16.57;;
19579;SDS011;9936;51.040;13.918;2023-03-01T05:32:18;33.80;;;16.50;;
19579;SDS011;9936;51.040;13.918;2023-03-01T05:36:05;32.80;;;16.30;;
19579;SDS011;9936;51.040;13.918;2023-03-01T05:39:52;40.13;;;18.60;;
19579;SDS011;9936;51.040;13.918;2023-03-01T05:43:37;52.57;;;22.90;;
19579;SDS011;9936;51.040;13.918;2023-03-01T05:47:24;42.93;;;19.93;;
19579;SDS011;9936;51.040;13.918;2023-03-01T05:51:09;35.17;;;17.87;;
19579;SDS011;9936;51.040;13.918;2023-03-01T05:54:55;36.73;;;17.83;;
19579;SDS011;9936;51.040;13.918;2023-03-01T05:58:40;33.83;;;16.87;;
19579;SDS011;9936;51.040;13.918;2023-03-01T06:02:26;42.67;;;18.50;;
19579;SDS011;9936;51.040;13.918;2023-03-01T06:06:12;38.20;;;19.37;;
19579;SDS011;9936;51.040;13.918;2023-03-01T06:09:57;40.50;;;18.17;;
19579;SDS011;9936;51.040;13.918;2023-03-01T06:13:43;42.37;;;18.67;;
19579;SDS011;9936;51.040;13.918;2023-03-01T06:17:30;35.43;;;18.20;;
19579;SDS011;9936;51.040;13.918;2023-03-01T06:21:22;37.63;;;18.47;;
19579;SDS011;9936;51.040;13.918;2023-03-01T06:25:08;38.67;;;18.20;;
19579;SDS011;9936;51.040;13.918;2023-03-01T06:28:59;39.40;;;18.63;;
19579;SDS011;9936;51.040;13.918;2023-03-01T06:32:45;37.20;;;18.30;;
19579;SDS011;9936;51.040;13.918;2023-03-01T06:36:30;35.33;;;17.67;;
19579;SDS011;9936;51.040;13.918;2023-03-01T06:40:16;41.63;;;18.47;;
19579;SDS011;9936;51.040;13.918;2023-03-01T06:44:02;34.93;;;17.23;;
19579;SDS011;9936;51.040;13.918;2023-03-01T06:47:48;35.43;;;17.60;;
19579;SDS011;9936;51.040;13.918;2023-03-01T06:51:33;35.63;;;17.93;;
19579;SDS011;9936;51.040;13.918;2023-03-01T06:55:19;37.63;;;18.37;;
19579;SDS011;9936;51.040;13.918;2023-03-01T06:59:05;36.87;;;17.77;;
19579;SDS011;9936;51.040;13.918;2023-03-01T07:02:51;37.90;;;17.80;;
19579;SDS011;9936;51.040;13.918;2023-03-01T07:10:55;36.33;;;17.30;;
19579;SDS011;9936;51.040;13.918;2023-03-01T07:14:43;37.23;;;18.00;;
19579;SDS011;9936;51.040;13.918;2023-03-01T07:18:29;43.47;;;19.53;;
19579;SDS011;9936;51.040;13.918;2023-03-01T07:22:15;39.60;;;19.10;;
19579;SDS011;9936;51.040;13.918;2023-03-01T07:26:00;40.60;;;19.67;;
19579;SDS011;9936;51.040;13.918;2023-03-01T07:29:46;37.13;;;19.10;;
19579;SDS011;9936;51.040;13.918;2023-03-01T07:33:32;39.03;;;18.63;;
19579;SDS011;9936;51.040;13.918;2023-03-01T07:37:17;41.73;;;19.73;;
19579;SDS011;9936;51.040;13.918;2023-03-01T07:41:03;41.23;;;21.07;;
19579;SDS011;9936;51.040;13.918;2023-03-01T07:44:50;36.10;;;19.07;;
19579;SDS011;9936;51.040;13.918;2023-03-01T07:48:36;43.80;;;20.53;;
19579;SDS011;9936;51.040;13.918;2023-03-01T07:52:21;40.33;;;20.53;;
19579;SDS011;9936;51.040;13.918;2023-03-01T07:56:08;42.20;;;20.17;;
19579;SDS011;9936;51.040;13.918;2023-03-01T07:59:55;42.57;;;20.47;;
19579;SDS011;9936;51.040;13.918;2023-03-01T08:07:39;42.13;;;20.63;;
19579;SDS011;9936;51.040;13.918;2023-03-01T08:11:24;38.93;;;19.30;;
19579;SDS011;9936;51.040;13.918;2023-03-01T08:15:10;38.43;;;18.83;;
19579;SDS011;9936;51.040;13.918;2023-03-01T08:18:56;43.83;;;21.00;;
19579;SDS011;9936;51.040;13.918;2023-03-01T08:22:45;46.57;;;22.33;;
19579;SDS011;9936;51.040;13.918;2023-03-01T08:26:31;61.60;;;28.50;;
19579;SDS011;9936;51.040;13.918;2023-03-01T08:30:17;84.40;;;33.50;;
19579;SDS011;9936;51.040;13.918;2023-03-01T08:38:35;68.53;;;27.40;;
19579;SDS011;9936;51.040;13.918;2023-03-01T08:42:20;55.03;;;25.33;;
19579;SDS011;9936;51.040;13.918;2023-03-01T08:46:06;58.40;;;24.57;;
19579;SDS011;9936;51.040;13.918;2023-03-01T08:49:52;53.27;;;22.83;;
19579;SDS011;9936;51.040;13.918;2023-03-01T08:53:38;52.40;;;22.93;;
19579;SDS011;9936;51.040;13.918;2023-03-01T08:57:24;52.73;;;23.27;;
19579;SDS011;9936;51.040;13.918;2023-03-01T09:01:10;80.17;;;33.23;;
19579;SDS011;9936;51.040;13.918;2023-03-01T09:04:56;54.10;;;25.37;;
19579;SDS011;9936;51.040;13.918;2023-03-01T09:08:43;51.90;;;23.53;;
19579;SDS011;9936;51.040;13.918;2023-03-01T09:12:30;43.60;;;21.73;;
19579;SDS011;9936;51.040;13.918;2023-03-01T09:16:17;49.53;;;22.50;;
19579;SDS011;9936;51.040;13.918;2023-03-01T09:20:04;51.97;;;23.03;;
19579;SDS011;9936;51.040;13.918;2023-03-01T09:23:50;48.37;;;22.57;;
19579;SDS011;9936;51.040;13.918;2023-03-01T09:27:36;88.63;;;34.27;;
19579;SDS011;9936;51.040;13.918;2023-03-01T09:31:22;56.10;;;25.67;;
19579;SDS011;9936;51.040;13.918;2023-03-01T09:35:09;52.10;;;23.47;;
19579;SDS011;9936;51.040;13.918;2023-03-01T09:38:55;49.53;;;23.60;;
19579;SDS011;9936;51.040;13.918;2023-03-01T09:46:51;54.23;;;24.80;;
19579;SDS011;9936;51.040;13.918;2023-03-01T09:50:38;51.43;;;22.90;;
19579;SDS011;9936;51.040;13.918;2023-03-01T09:54:26;52.30;;;22.00;;
19579;SDS011;9936;51.040;13.918;2023-03-01T09:59:14;46.27;;;21.80;;
19579;SDS011;9936;51.040;13.918;2023-03-01T10:02:47;44.87;;;20.33;;
19579;SDS011;9936;51.040;13.918;2023-03-01T10:06:38;43.13;;;20.60;;
19579;SDS011;9936;51.040;13.918;2023-03-01T10:10:33;51.93;;;21.50;;
19579;SDS011;9936;51.040;13.918;2023-03-01T10:18:12;48.40;;;21.57;;
19579;SDS011;9936;51.040;13.918;2023-03-01T10:22:11;42.40;;;19.87;;
19579;SDS011;9936;51.040;13.918;2023-03-01T10:38:09;41.07;;;19.60;;
19579;SDS011;9936;51.040;13.918;2023-03-01T10:42:00;44.33;;;19.67;;
19579;SDS011;9936;51.040;13.918;2023-03-01T10:49:39;39.30;;;19.37;;
19579;SDS011;9936;51.040;13.918;2023-03-01T10:53:41;41.37;;;18.80;;
19579;SDS011;9936;51.040;13.918;2023-03-01T10:57:37;37.07;;;18.93;;
19579;SDS011;9936;51.040;13.918;2023-03-01T11:05:23;35.33;;;17.77;;
19579;SDS011;9936;51.040;13.918;2023-03-01T11:09:22;39.63;;;18.03;;
19579;SDS011;9936;51.040;13.918;2023-03-01T11:13:15;35.67;;;17.87;;
19579;SDS011;9936;51.040;13.918;2023-03-01T11:17:12;38.87;;;17.90;;
19579;SDS011;9936;51.040;13.918;2023-03-01T11:21:05;39.77;;;18.97;;
19579;SDS011;9936;51.040;13.918;2023-03-01T11:24:54;37.43;;;17.47;;
19579;SDS011;9936;51.040;13.918;2023-03-01T11:28:40;40.37;;;19.20;;
19579;SDS011;9936;51.040;13.918;2023-03-01T11:32:32;34.93;;;17.30;;
19579;SDS011;9936;51.040;13.918;2023-03-01T11:40:26;32.37;;;16.80;;
19579;SDS011;9936;51.040;13.918;2023-03-01T11:44:25;32.47;;;16.73;;
19579;SDS011;9936;51.040;13.918;2023-03-01T11:56:48;37.10;;;17.73;;
19579;SDS011;9936;51.040;13.918;2023-03-01T12:05:30;36.73;;;17.87;;
19579;SDS011;9936;51.040;13.918;2023-03-01T12:38:01;46.43;;;22.93;;
19579;SDS011;9936;51.040;13.918;2023-03-01T12:42:05;47.37;;;22.17;;
19579;SDS011;9936;51.040;13.918;2023-03-01T12:50:11;50.00;;;23.33;;
19579;SDS011;9936;51.040;13.918;2023-03-01T12:54:26;86.23;;;39.03;;
19579;SDS011;9936;51.040;13.918;2023-03-01T13:06:25;38.20;;;18.80;;
19579;SDS011;9936;51.040;13.918;2023-03-01T13:18:26;43.43;;;19.40;;
19579;SDS011;9936;51.040;13.918;2023-03-01T13:22:28;35.97;;;19.03;;
19579;SDS011;9936;51.040;13.918;2023-03-01T13:26:17;34.20;;;17.20;;
19579;SDS011;9936;51.040;13.918;2023-03-01T13:30:03;35.13;;;18.57;;
19579;SDS011;9936;51.040;13.918;2023-03-01T13:33:51;38.00;;;19.00;;
19579;SDS011;9936;51.040;13.918;2023-03-01T13:37:37;37.07;;;18.57;;
19579;SDS011;9936;51.040;13.918;2023-03-01T13:45:40;35.60;;;17.97;;
19579;SDS011;9936;51.040;13.918;2023-03-01T13:49:28;32.83;;;16.70;;
19579;SDS011;9936;51.040;13.918;2023-03-01T13:53:22;30.63;;;17.33;;
19579;SDS011;9936;51.040;13.918;2023-03-01T13:57:12;32.27;;;16.93;;
19579;SDS011;9936;51.040;13.918;2023-03-01T14:01:07;42.03;;;18.80;;
19579;SDS011;9936;51.040;13.918;2023-03-01T14:05:13;36.13;;;17.13;;
19579;SDS011;9936;51.040;13.918;2023-03-01T14:09:03;32.13;;;15.97;;
19579;SDS011;9936;51.040;13.918;2023-03-01T14:13:13;32.70;;;16.33;;
19579;SDS011;9936;51.040;13.918;2023-03-01T14:21:27;35.27;;;16.67;;
19579;SDS011;9936;51.040;13.918;2023-03-01T14:29:25;34.87;;;18.40;;
19579;SDS011;9936;51.040;13.918;2023-03-01T14:37:22;40.10;;;20.37;;
19579;SDS011;9936;51.040;13.918;2023-03-01T14:41:14;41.93;;;20.03;;
19579;SDS011;9936;51.040;13.918;2023-03-01T14:45:03;39.07;;;18.73;;
19579;SDS011;9936;51.040;13.918;2023-03-01T14:48:51;34.90;;;18.70;;
19579;SDS011;9936;51.040;13.918;2023-03-01T14:52:41;37.80;;;19.63;;
19579;SDS011;9936;51.040;13.918;2023-03-01T14:56:37;41.13;;;20.70;;
19579;SDS011;9936;51.040;13.918;2023-03-01T15:00:30;40.63;;;19.23;;
19579;SDS011;9936;51.040;13.918;2023-03-01T15:04:19;39.47;;;19.80;;
19579;SDS011;9936;51.040;13.918;2023-03-01T15:08:07;57.33;;;26.37;;
19579;SDS011;9936;51.040;13.918;2023-03-01T15:12:23;43.07;;;21.07;;
19579;SDS011;9936;51.040;13.918;2023-03-01T15:16:27;56.60;;;26.30;;
19579;SDS011;9936;51.040;13.918;2023-03-01T15:20:17;44.20;;;21.53;;
19579;SDS011;9936;51.040;13.918;2023-03-01T15:28:04;84.27;;;34.37;;
19579;SDS011;9936;51.040;13.918;2023-03-01T15:31:54;41.90;;;20.43;;
19579;SDS011;9936;51.040;13.918;2023-03-01T15:35:43;40.63;;;21.43;;
19579;SDS011;9936;51.040;13.918;2023-03-01T15:39:34;33.67;;;16.63;;
19579;SDS011;9936;51.040;13.918;2023-03-01T15:43:40;32.67;;;17.60;;
19579;SDS011;9936;51.040;13.918;2023-03-01T15:47:30;34.90;;;18.07;;
19579;SDS011;9936;51.040;13.918;2023-03-01T15:51:17;31.13;;;16.67;;
19579;SDS011;9936;51.040;13.918;2023-03-01T15:55:06;31.13;;;16.10;;
19579;SDS011;9936;51.040;13.918;2023-03-01T15:59:02;29.17;;;15.70;;
19579;SDS011;9936;51.040;13.918;2023-03-01T16:02:48;24.40;;;14.37;;
19579;SDS011;9936;51.040;13.918;2023-03-01T16:06:33;31.60;;;14.53;;
19579;SDS011;9936;51.040;13.918;2023-03-01T16:10:21;31.07;;;14.90;;
19579;SDS011;9936;51.040;13.918;2023-03-01T16:14:08;25.67;;;14.13;;
19579;SDS011;9936;51.040;13.918;2023-03-01T16:17:54;26.97;;;13.80;;
19579;SDS011;9936;51.040;13.918;2023-03-01T16:21:40;25.47;;;13.17;;
19579;SDS011;9936;51.040;13.918;2023-03-01T16:25:27;22.83;;;12.83;;
19579;SDS011;9936;51.040;13.918;2023-03-01T16:29:13;25.17;;;13.60;;
19579;SDS011;9936;51.040;13.918;2023-03-01T16:33:01;23.13;;;12.50;;
19579;SDS011;9936;51.040;13.918;2023-03-01T16:36:47;22.73;;;12.23;;
19579;SDS011;9936;51.040;13.918;2023-03-01T16:44:23;24.80;;;13.10;;
19579;SDS011;9936;51.040;13.918;2023-03-01T16:48:09;25.17;;;13.63;;
19579;SDS011;9936;51.040;13.918;2023-03-01T16:51:54;23.23;;;13.53;;
19579;SDS011;9936;51.040;13.918;2023-03-01T16:55:40;26.03;;;14.23;;
19579;SDS011;9936;51.040;13.918;2023-03-01T16:59:30;25.80;;;14.23;;
19579;SDS011;9936;51.040;13.918;2023-03-01T17:03:15;25.63;;;13.23;;
19579;SDS011;9936;51.040;13.918;2023-03-01T17:07:02;25.87;;;14.33;;
19579;SDS011;9936;51.040;13.918;2023-03-01T17:10:48;28.97;;;15.57;;
19579;SDS011;9936;51.040;13.918;2023-03-01T17:14:34;27.03;;;15.27;;
19579;SDS011;9936;51.040;13.918;2023-03-01T17:18:20;29.67;;;15.77;;
19579;SDS011;9936;51.040;13.918;2023-03-01T17:22:06;31.70;;;16.93;;
19579;SDS011;9936;51.040;13.918;2023-03-01T17:25:52;30.07;;;15.90;;
19579;SDS011;9936;51.040;13.918;2023-03-01T17:29:40;31.97;;;17.80;;
19579;SDS011;9936;51.040;13.918;2023-03-01T17:33:26;33.93;;;17.03;;
19579;SDS011;9936;51.040;13.918;2023-03-01T17:37:12;35.43;;;15.63;;
19579;SDS011;9936;51.040;13.918;2023-03-01T17:40:58;26.17;;;14.37;;
19579;SDS011;9936;51.040;13.918;2023-03-01T17:44:44;21.57;;;10.53;;
19579;SDS011;9936;51.040;13.918;2023-03-01T17:48:30;19.37;;;10.13;;
19579;SDS011;9936;51.040;13.918;2023-03-01T17:52:16;16.67;;;9.43;;
19579;SDS011;9936;51.040;13.918;2023-03-01T17:56:02;19.73;;;9.60;;
19579;SDS011;9936;51.040;13.918;2023-03-01T17:59:51;18.50;;;9.27;;
19579;SDS011;9936;51.040;13.918;2023-03-01T18:03:36;17.37;;;10.17;;
19579;SDS011;9936;51.040;13.918;2023-03-01T18:07:24;20.67;;;10.73;;
19579;SDS011;9936;51.040;13.918;2023-03-01T18:11:13;22.70;;;10.13;;
19579;SDS011;9936;51.040;13.918;2023-03-01T18:14:59;16.83;;;9.07;;
19579;SDS011;9936;51.040;13.918;2023-03-01T18:18:45;16.37;;;9.57;;
19579;SDS011;9936;51.040;13.918;2023-03-01T18:22:31;21.97;;;9.93;;
19579;SDS011;9936;51.040;13.918;2023-03-01T18:26:17;16.50;;;9.83;;
19579;SDS011;9936;51.040;13.918;2023-03-01T18:30:18;16.47;;;9.67;;
19579;SDS011;9936;51.040;13.918;2023-03-01T18:46:30;21.07;;;9.53;;
19579;SDS011;9936;51.040;13.918;2023-03-01T18:50:17;18.70;;;9.97;;
19579;SDS011;9936;51.040;13.918;2023-03-01T18:54:03;20.13;;;11.13;;
19579;SDS011;9936;51.040;13.918;2023-03-01T18:58:01;19.40;;;10.83;;
19579;SDS011;9936;51.040;13.918;2023-03-01T19:01:51;22.77;;;10.70;;
19579;SDS011;9936;51.040;13.918;2023-03-01T19:05:39;18.47;;;9.33;;
19579;SDS011;9936;51.040;13.918;2023-03-01T19:09:32;19.27;;;10.07;;
19579;SDS011;9936;51.040;13.918;2023-03-01T19:13:35;17.73;;;10.13;;
19579;SDS011;9936;51.040;13.918;2023-03-01T19:17:25;20.43;;;11.07;;
19579;SDS011;9936;51.040;13.918;2023-03-01T19:25:10;26.37;;;13.90;;
19579;SDS011;9936;51.040;13.918;2023-03-01T19:28:57;28.47;;;15.10;;
19579;SDS011;9936;51.040;13.918;2023-03-01T19:32:43;30.73;;;16.10;;
19579;SDS011;9936;51.040;13.918;2023-03-01T19:36:33;30.20;;;16.30;;
19579;SDS011;9936;51.040;13.918;2023-03-01T19:40:20;27.87;;;14.77;;
19579;SDS011;9936;51.040;13.918;2023-03-01T19:44:07;26.47;;;13.47;;
19579;SDS011;9936;51.040;13.918;2023-03-01T19:47:54;27.67;;;14.07;;
19579;SDS011;9936;51.040;13.918;2023-03-01T19:51:39;28.57;;;14.10;;
19579;SDS011;9936;51.040;13.918;2023-03-01T19:55:25;24.67;;;13.07;;
19579;SDS011;9936;51.040;13.918;2023-03-01T19:59:11;28.53;;;13.43;;
19579;SDS011;9936;51.040;13.918;2023-03-01T20:02:57;30.27;;;14.90;;
19579;SDS011;9936;51.040;13.918;2023-03-01T20:06:43;28.43;;;15.13;;
19579;SDS011;9936;51.040;13.918;2023-03-01T20:10:31;30.13;;;13.60;;
19579;SDS011;9936;51.040;13.918;2023-03-01T20:14:18;25.97;;;13.63;;
19579;SDS011;9936;51.040;13.918;2023-03-01T20:18:04;25.17;;;13.60;;
19579;SDS011;9936;51.040;13.918;2023-03-01T20:21:52;26.43;;;12.80;;
19579;SDS011;9936;51.040;13.918;2023-03-01T20:25:39;25.53;;;11.67;;
19579;SDS011;9936;51.040;13.918;2023-03-01T20:29:25;23.97;;;12.97;;
19579;SDS011;9936;51.040;13.918;2023-03-01T20:33:11;25.93;;;12.03;;
19579;SDS011;9936;51.040;13.918;2023-03-01T20:36:56;27.33;;;12.80;;
19579;SDS011;9936;51.040;13.918;2023-03-01T20:40:42;25.43;;;12.43;;
19579;SDS011;9936;51.040;13.918;2023-03-01T20:44:28;27.77;;;12.57;;
19579;SDS011;9936;51.040;13.918;2023-03-01T20:48:13;22.73;;;12.03;;
19579;SDS011;9936;51.040;13.918;2023-03-01T20:51:59;24.30;;;12.20;;
19579;SDS011;9936;51.040;13.918;2023-03-01T20:55:45;26.03;;;12.53;;
19579;SDS011;9936;51.040;13.918;2023-03-01T20:59:30;21.50;;;11.20;;
19579;SDS011;9936;51.040;13.918;2023-03-01T21:03:18;24.27;;;11.80;;
19579;SDS011;9936;51.040;13.918;2023-03-01T21:07:04;24.20;;;11.23;;
19579;SDS011;9936;51.040;13.918;2023-03-01T21:10:54;31.60;;;13.57;;
19579;SDS011;9936;51.040;13.918;2023-03-01T21:14:40;25.43;;;13.03;;
19579;SDS011;9936;51.040;13.918;2023-03-01T21:18:27;23.53;;;12.20;;
19579;SDS011;9936;51.040;13.918;2023-03-01T21:22:16;23.53;;;12.67;;
19579;SDS011;9936;51.040;13.918;2023-03-01T21:26:06;24.67;;;11.47;;
19579;SDS011;9936;51.040;13.918;2023-03-01T21:29:54;24.67;;;11.57;;
19579;SDS011;9936;51.040;13.918;2023-03-01T21:33:43;25.60;;;11.33;;
19579;SDS011;9936;51.040;13.918;2023-03-01T21:37:38;19.60;;;11.13;;
19579;SDS011;9936;51.040;13.918;2023-03-01T21:41:25;28.30;;;11.73;;
19579;SDS011;9936;51.040;13.918;2023-03-01T21:45:13;24.23;;;12.17;;
19579;SDS011;9936;51.040;13.918;2023-03-01T21:48:58;22.70;;;11.40;;
19579;SDS011;9936;51.040;13.918;2023-03-01T21:52:44;22.40;;;11.40;;
19579;SDS011;9936;51.040;13.918;2023-03-01T21:56:30;23.93;;;12.63;;
19579;SDS011;9936;51.040;13.918;2023-03-01T22:00:18;23.40;;;11.30;;
19579;SDS011;9936;51.040;13.918;2023-03-01T22:04:07;23.40;;;11.03;;
19579;SDS011;9936;51.040;13.918;2023-03-01T22:07:53;25.23;;;12.27;;
19579;SDS011;9936;51.040;13.918;2023-03-01T22:11:40;24.50;;;12.80;;
19579;SDS011;9936;51.040;13.918;2023-03-01T22:15:29;25.87;;;12.53;;
19579;SDS011;9936;51.040;13.918;2023-03-01T22:19:15;25.93;;;12.40;;
19579;SDS011;9936;51.040;13.918;2023-03-01T22:23:02;26.30;;;13.47;;
19579;SDS011;9936;51.040;13.918;2023-03-01T22:26:48;28.63;;;14.13;;
19579;SDS011;9936;51.040;13.918;2023-03-01T22:30:35;25.93;;;12.60;;
19579;SDS011;9936;51.040;13.918;2023-03-01T22:34:21;28.90;;;14.93;;
19579;SDS011;9936;51.040;13.918;2023-03-01T22:38:07;28.17;;;13.73;;
19579;SDS011;9936;51.040;13.918;2023-03-01T22:41:53;29.13;;;12.47;;
19579;SDS011;9936;51.040;13.918;2023-03-01T22:45:38;25.80;;;12.50;;
19579;SDS011;9936;51.040;13.918;2023-03-01T22:49:24;25.23;;;12.87;;
19579;SDS011;9936;51.040;13.918;2023-03-01T22:53:10;29.03;;;12.80;;
19579;SDS011;9936;51.040;13.918;2023-03-01T22:56:56;27.67;;;12.93;;
19579;SDS011;9936;51.040;13.918;2023-03-01T23:00:45;27.33;;;13.27;;
19579;SDS011;9936;51.040;13.918;2023-03-01T23:04:30;27.43;;;13.27;;
19579;SDS011;9936;51.040;13.918;2023-03-01T23:08:16;28.23;;;13.13;;
19579;SDS011;9936;51.040;13.918;2023-03-01T23:12:02;25.97;;;13.90;;
19579;SDS011;9936;51.040;13.918;2023-03-01T23:15:54;27.77;;;14.00;;
19579;SDS011;9936;51.040;13.918;2023-03-01T23:19:42;26.67;;;13.00;;
19579;SDS011;9936;51.040;13.918;2023-03-01T23:23:28;24.00;;;12.60;;
19579;SDS011;9936;51.040;13.918;2023-03-01T23:27:14;25.27;;;13.13;;
19579;SDS011;9936;51.040;13.918;2023-03-01T23:31:03;25.00;;;12.47;;
19579;SDS011;9936;51.040;13.918;2023-03-01T23:34:51;31.07;;;13.53;;
19579;SDS011;9936;51.040;13.918;2023-03-01T23:38:36;28.67;;;13.87;;
19579;SDS011;9936;51.040;13.918;2023-03-01T23:42:22;28.30;;;13.70;;
19579;SDS011;9936;51.040;13.918;2023-03-01T23:46:08;26.20;;;13.43;;
19579;SDS011;9936;51.040;13.918;2023-03-01T23:49:58;27.40;;;13.27;;
19579;SDS011;9936;51.040;13.918;2023-03-01T23:53:46;26.53;;;13.87;;
19579;SDS011;9936;51.040;13.918;2023-03-01T23:57:39;29.83;;;15.13;;
